createdAt,value
2023-01-03T00:01:39.413Z,4.20
2023-01-03T00:04:49.173Z,3.63
2023-01-03T00:07:53.508Z,3.70
2023-01-03T00:10:57.227Z,3.60
2023-01-03T00:13:59.903Z,4.60
2023-01-03T00:17:06.213Z,4.53
2023-01-03T00:20:12.953Z,4.33
2023-01-03T00:23:16.626Z,4.40
2023-01-03T00:26:20.235Z,4.33
2023-01-03T00:29:24.180Z,4.53
2023-01-03T00:32:28.236Z,5.00
2023-01-03T00:35:33.507Z,4.57
2023-01-03T00:38:38.574Z,4.73
2023-01-03T00:41:43.005Z,4.67
2023-01-03T00:44:46.623Z,5.27
2023-01-03T00:47:50.305Z,5.40
2023-01-03T00:50:55.857Z,5.43
2023-01-03T00:54:02.738Z,5.80
2023-01-03T00:57:06.497Z,5.67
2023-01-03T01:00:11.896Z,5.27
2023-01-03T01:03:18.134Z,5.67
2023-01-03T01:06:27.558Z,6.03
2023-01-03T01:09:33.986Z,6.03
2023-01-03T01:12:37.835Z,5.77
2023-01-03T01:15:41.591Z,5.73
2023-01-03T01:18:48.505Z,5.23
2023-01-03T01:21:53.696Z,5.97
2023-01-03T01:24:57.681Z,5.90
2023-01-03T01:28:01.464Z,6.27
2023-01-03T01:31:07.542Z,6.57
2023-01-03T01:34:11.598Z,6.43
2023-01-03T01:37:16.694Z,5.83
2023-01-03T01:40:20.985Z,5.97
2023-01-03T01:43:51.835Z,6.30
2023-01-03T01:46:55.511Z,5.93
2023-01-03T01:50:06.963Z,6.30
2023-01-03T01:53:17.263Z,5.93
2023-01-03T01:56:26.934Z,5.27
2023-01-03T01:59:30.570Z,6.83
2023-01-03T02:02:34.445Z,6.43
2023-01-03T02:05:43.698Z,6.10
2023-01-03T02:08:48.822Z,5.93
2023-01-03T02:12:12.947Z,6.73
2023-01-03T02:15:46.645Z,6.30
2023-01-03T02:19:02.488Z,6.23
2023-01-03T02:22:39.572Z,5.97
2023-01-03T02:26:45.975Z,6.23
2023-01-03T02:30:38.920Z,5.90
2023-01-03T02:33:54.695Z,6.27
2023-01-03T02:37:13.820Z,6.50
2023-01-03T02:40:29.668Z,5.57
2023-01-03T02:43:46.638Z,6.30
2023-01-03T02:46:58.992Z,6.40
2023-01-03T02:50:09.394Z,7.60
2023-01-03T02:53:19.429Z,7.13
2023-01-03T02:56:33.686Z,7.07
2023-01-03T02:59:44.689Z,7.60
2023-01-03T03:02:55.560Z,6.80
2023-01-03T03:06:10.377Z,7.13
2023-01-03T03:09:14.073Z,6.10
2023-01-03T03:12:34.921Z,6.90
2023-01-03T03:15:51.272Z,6.90
2023-01-03T03:19:02.373Z,7.70
2023-01-03T03:22:29.722Z,6.93
2023-01-03T03:25:41.225Z,7.07
2023-01-03T03:28:50.892Z,7.53
2023-01-03T03:31:56.982Z,7.17
2023-01-03T03:35:09.092Z,7.57
2023-01-03T03:38:17.967Z,6.53
2023-01-03T03:41:51.361Z,6.70
2023-01-03T03:45:03.858Z,6.67
2023-01-03T03:48:16.802Z,7.13
2023-01-03T03:51:26.833Z,6.03
2023-01-03T03:54:35.527Z,6.53
2023-01-03T03:57:48.347Z,6.27
2023-01-03T04:00:54.434Z,6.03
2023-01-03T04:04:07.136Z,5.67
2023-01-03T04:07:12.437Z,6.63
2023-01-03T04:10:20.434Z,6.30
2023-01-03T04:13:24.129Z,6.60
2023-01-03T04:16:27.854Z,5.97
2023-01-03T04:19:31.706Z,6.27
2023-01-03T04:22:37.132Z,5.50
2023-01-03T04:25:40.765Z,5.60
2023-01-03T04:28:44.584Z,6.07
2023-01-03T04:31:49.206Z,5.87
2023-01-03T04:34:53.024Z,5.47
2023-01-03T04:37:59.278Z,6.30
2023-01-03T04:41:06.881Z,6.53
2023-01-03T04:44:10.285Z,6.83
2023-01-03T04:47:14.062Z,6.87
2023-01-03T04:50:17.881Z,5.93
2023-01-03T04:53:23.872Z,6.50
2023-01-03T04:56:30.552Z,7.43
2023-01-03T04:59:34.277Z,6.33
2023-01-03T05:02:37.979Z,8.00
2023-01-03T05:05:42.150Z,7.47
2023-01-03T05:08:48.727Z,8.07
2023-01-03T05:11:55.545Z,7.90
2023-01-03T05:14:59.320Z,7.60
2023-01-03T05:18:03.249Z,7.73
2023-01-03T05:21:26.343Z,8.30
2023-01-03T05:24:51.376Z,8.90
2023-01-03T05:27:55.553Z,8.73
2023-01-03T05:31:00.158Z,9.33
2023-01-03T05:34:03.840Z,7.70
2023-01-03T05:37:07.557Z,7.80
2023-01-03T05:40:13.430Z,7.90
2023-01-03T05:43:17.727Z,7.00
2023-01-03T05:46:22.010Z,8.23
2023-01-03T05:49:25.898Z,7.73
2023-01-03T05:52:29.619Z,7.20
2023-01-03T05:55:36.649Z,8.33
2023-01-03T05:58:40.362Z,7.67
2023-01-03T06:01:44.219Z,8.10
2023-01-03T06:04:47.942Z,8.37
2023-01-03T06:07:51.742Z,8.27
2023-01-03T06:10:57.236Z,8.87
2023-01-03T06:14:01.024Z,8.33
2023-01-03T06:17:22.108Z,8.30
2023-01-03T06:20:27.556Z,8.63
2023-01-03T06:23:31.176Z,8.13
2023-01-03T06:26:36.455Z,8.67
2023-01-03T06:29:40.131Z,8.73
2023-01-03T06:32:44.786Z,8.73
2023-01-03T06:35:48.584Z,8.93
2023-01-03T06:38:52.290Z,9.17
2023-01-03T06:41:57.304Z,9.17
2023-01-03T06:45:18.753Z,9.83
2023-01-03T06:48:39.826Z,10.50
2023-01-03T06:52:01.360Z,11.97
2023-01-03T06:55:07.503Z,10.67
2023-01-03T06:58:13.581Z,11.40
2023-01-03T07:01:17.500Z,11.47
2023-01-03T07:04:26.764Z,11.07
2023-01-03T07:07:30.505Z,12.10
2023-01-03T07:10:34.209Z,11.87
2023-01-03T07:13:56.610Z,12.17
2023-01-03T07:17:00.269Z,12.00
2023-01-03T07:20:04.147Z,11.23
2023-01-03T07:23:07.863Z,12.67
2023-01-03T07:26:11.563Z,12.23
2023-01-03T07:29:16.608Z,12.97
2023-01-03T07:32:20.213Z,11.53
2023-01-03T07:35:23.792Z,12.43
2023-01-03T07:38:27.448Z,13.63
2023-01-03T07:41:44.973Z,12.30
2023-01-03T07:44:49.979Z,12.57
2023-01-03T07:47:54.561Z,12.40
2023-01-03T07:51:00.409Z,13.57
2023-01-03T07:54:04.106Z,12.83
2023-01-03T07:57:07.755Z,13.43
2023-01-03T08:00:14.822Z,13.80
2023-01-03T08:03:19.155Z,13.80
2023-01-03T08:06:25.473Z,14.60
2023-01-03T08:09:46.480Z,14.53
2023-01-03T08:13:07.181Z,14.30
2023-01-03T08:16:14.781Z,15.00
2023-01-03T08:19:18.672Z,15.67
2023-01-03T08:22:22.311Z,15.10
2023-01-03T08:25:26.006Z,15.33
2023-01-03T08:28:29.932Z,14.80
2023-01-03T08:31:41.280Z,14.73
2023-01-03T08:34:48.542Z,15.43
2023-01-03T08:37:53.369Z,15.37
2023-01-03T08:40:58.336Z,16.17
2023-01-03T08:44:05.505Z,17.00
2023-01-03T08:47:11.144Z,16.63
2023-01-03T08:50:16.494Z,15.97
2023-01-03T08:53:20.476Z,15.67
2023-01-03T08:56:24.260Z,15.43
2023-01-03T08:59:27.996Z,15.80
2023-01-03T09:02:36.468Z,15.43
2023-01-03T09:05:40.693Z,17.07
2023-01-03T09:08:44.418Z,16.50
2023-01-03T09:11:48.058Z,15.53
2023-01-03T09:14:51.682Z,15.73
2023-01-03T09:17:56.760Z,15.57
2023-01-03T09:21:00.495Z,16.03
2023-01-03T09:24:04.244Z,14.90
2023-01-03T09:27:07.838Z,14.67
2023-01-03T09:30:13.688Z,14.17
2023-01-03T09:33:18.932Z,14.67
2023-01-03T09:36:25.551Z,14.10
2023-01-03T09:39:29.194Z,14.60
2023-01-03T09:42:50.331Z,14.37
2023-01-03T09:45:58.647Z,15.07
2023-01-03T09:49:07.083Z,14.30
2023-01-03T09:52:37.453Z,13.90
2023-01-03T09:56:09.847Z,15.50
2023-01-03T09:59:37.072Z,14.03
2023-01-03T10:03:29.547Z,14.83
2023-01-03T10:06:51.948Z,14.90
2023-01-03T10:10:14.386Z,14.10
2023-01-03T10:13:33.474Z,14.87
2023-01-03T10:16:56.254Z,14.33
2023-01-03T10:20:33.404Z,15.47
2023-01-03T10:23:39.181Z,14.73
2023-01-03T10:26:42.982Z,15.80
2023-01-03T10:29:51.661Z,14.43
2023-01-03T10:33:25.613Z,17.57
2023-01-03T10:36:29.661Z,16.67
2023-01-03T10:39:35.530Z,16.27
2023-01-03T10:42:43.655Z,16.07
2023-01-03T10:45:57.258Z,18.03
2023-01-03T10:49:28.832Z,17.40
2023-01-03T10:52:40.672Z,17.63
2023-01-03T10:55:53.337Z,16.53
2023-01-03T10:59:14.124Z,17.60
2023-01-03T11:02:20.213Z,18.93
2023-01-03T11:05:27.571Z,17.37
2023-01-03T11:08:44.531Z,17.13
2023-01-03T11:12:00.438Z,18.73
2023-01-03T11:15:17.324Z,19.30
2023-01-03T11:18:22.683Z,18.70
2023-01-03T11:21:36.832Z,19.90
2023-01-03T11:25:04.657Z,19.03
2023-01-03T11:28:46.976Z,18.03
2023-01-03T11:32:03.755Z,19.63
2023-01-03T11:35:53.610Z,18.87
2023-01-03T11:39:26.644Z,19.77
2023-01-03T11:42:57.424Z,20.17
2023-01-03T11:46:31.742Z,19.23
2023-01-03T11:49:53.678Z,19.63
2023-01-03T11:53:04.941Z,19.87
2023-01-03T11:56:26.761Z,19.70
2023-01-03T12:00:04.639Z,19.17
2023-01-03T12:03:23.877Z,17.50
2023-01-03T12:06:36.857Z,20.63
2023-01-03T12:09:51.751Z,18.87
2023-01-03T12:13:15.752Z,19.07
2023-01-03T12:16:30.800Z,19.90
2023-01-03T12:19:48.107Z,19.37
2023-01-03T12:23:00.518Z,18.03
2023-01-03T12:26:10.297Z,19.70
2023-01-03T12:29:22.076Z,20.63
2023-01-03T12:32:35.779Z,19.50
2023-01-03T12:35:52.361Z,20.13
2023-01-03T12:39:14.058Z,21.17
2023-01-03T12:42:35.171Z,20.97
2023-01-03T12:45:53.883Z,20.63
2023-01-03T12:49:08.795Z,21.20
2023-01-03T12:52:20.052Z,20.20
2023-01-03T12:55:42.143Z,20.43
2023-01-03T12:59:07.011Z,20.93
2023-01-03T13:02:25.388Z,20.93
2023-01-03T13:05:39.435Z,21.20
2023-01-03T13:08:49.807Z,19.37
2023-01-03T13:11:58.437Z,20.07
2023-01-03T13:15:18.668Z,20.67
2023-01-03T13:18:37.653Z,20.87
2023-01-03T13:22:21.852Z,21.30
2023-01-03T13:25:42.871Z,21.17
2023-01-03T13:28:47.767Z,21.77
2023-01-03T13:32:19.397Z,23.47
2023-01-03T13:35:37.860Z,20.47
2023-01-03T13:38:41.517Z,23.27
2023-01-03T13:41:55.043Z,21.50
2023-01-03T13:45:57.891Z,23.07
2023-01-03T13:49:05.883Z,20.63
2023-01-03T13:52:37.897Z,20.07
2023-01-03T13:55:52.701Z,21.40
2023-01-03T13:59:20.918Z,20.90
2023-01-03T14:03:17.993Z,20.70
2023-01-03T14:07:09.510Z,20.20
2023-01-03T14:10:34.888Z,24.23
2023-01-03T14:13:46.000Z,22.17
2023-01-03T14:16:54.443Z,20.30
2023-01-03T14:20:07.909Z,21.80
2023-01-03T14:23:57.792Z,21.60
2023-01-03T14:26:40.236Z,21.17
2023-01-03T14:29:50.008Z,21.30
2023-01-03T14:32:55.455Z,20.47
2023-01-03T14:36:06.658Z,22.27
2023-01-03T14:42:34.782Z,21.33
2023-01-03T14:45:38.436Z,20.87
2023-01-03T14:48:48.109Z,20.27
2023-01-03T14:51:53.797Z,20.37
2023-01-03T14:55:04.591Z,22.10
2023-01-03T14:58:33.432Z,21.47
2023-01-03T15:01:39.097Z,21.07
2023-01-03T15:04:54.651Z,19.67
2023-01-03T15:08:11.264Z,21.10
2023-01-03T15:11:16.569Z,20.93
2023-01-03T15:14:20.918Z,20.23
2023-01-03T15:17:28.240Z,20.47
2023-01-03T15:20:39.670Z,20.13
2023-01-03T15:23:47.697Z,21.90
2023-01-03T15:26:54.078Z,21.00
2023-01-03T15:29:57.938Z,20.43
2023-01-03T15:33:05.089Z,20.70
2023-01-03T15:36:19.109Z,21.17
2023-01-03T15:39:26.116Z,20.80
2023-01-03T15:42:59.497Z,20.20
2023-01-03T15:46:14.860Z,20.20
2023-01-03T15:49:25.208Z,21.73
2023-01-03T15:52:30.238Z,21.63
2023-01-03T15:55:34.412Z,21.30
2023-01-03T15:58:38.419Z,21.23
2023-01-03T16:01:42.509Z,21.27
2023-01-03T16:04:47.649Z,19.70
2023-01-03T16:07:52.905Z,19.83
2023-01-03T16:10:58.327Z,21.10
2023-01-03T16:14:06.645Z,21.03
2023-01-03T16:17:22.527Z,21.83
2023-01-03T16:20:34.442Z,20.43
2023-01-03T16:23:39.438Z,20.93
2023-01-03T16:26:43.153Z,22.83
2023-01-03T16:29:46.840Z,21.00
2023-01-03T16:32:51.170Z,20.43
2023-01-03T16:35:55.700Z,20.13
2023-01-03T16:39:01.921Z,19.97
2023-01-03T16:42:15.160Z,19.93
2023-01-03T16:45:19.584Z,19.33
2023-01-03T16:48:27.027Z,18.17
2023-01-03T16:51:35.336Z,18.07
2023-01-03T16:54:42.342Z,17.03
2023-01-03T16:57:50.344Z,18.10
2023-01-03T17:00:57.920Z,16.97
2023-01-03T17:04:01.603Z,15.90
2023-01-03T17:07:05.839Z,16.07
2023-01-03T17:10:27.037Z,16.17
2023-01-03T17:13:34.713Z,16.20
2023-01-03T17:16:38.397Z,14.50
2023-01-03T17:23:06.185Z,15.90
2023-01-03T17:26:20.928Z,14.43
2023-01-03T17:29:28.024Z,15.30
2023-01-03T17:32:31.724Z,14.93
2023-01-03T17:35:38.385Z,13.57
2023-01-03T17:38:43.364Z,14.00
2023-01-03T17:42:06.272Z,14.07
2023-01-03T17:45:41.032Z,14.30
2023-01-03T17:49:02.239Z,15.20
2023-01-03T17:52:08.432Z,15.43
2023-01-03T17:55:22.939Z,15.33
2023-01-03T17:58:34.452Z,16.20
2023-01-03T18:01:38.265Z,16.07
2023-01-03T18:05:13.713Z,17.43
2023-01-03T18:08:06.251Z,17.33
2023-01-03T18:11:16.446Z,16.27
2023-01-03T18:14:22.511Z,16.63
2023-01-03T18:17:30.884Z,15.73
2023-01-03T18:20:35.189Z,15.63
2023-01-03T18:23:40.405Z,15.97
2023-01-03T18:26:49.071Z,17.10
2023-01-03T18:29:54.566Z,16.10
2023-01-03T18:32:58.367Z,16.93
2023-01-03T18:36:02.481Z,16.53
2023-01-03T18:39:14.036Z,16.70
2023-01-03T18:42:35.522Z,17.43
2023-01-03T18:45:42.436Z,18.17
2023-01-03T18:48:46.053Z,16.53
2023-01-03T18:51:54.514Z,17.00
2023-01-03T18:54:58.342Z,16.60
2023-01-03T18:58:16.374Z,16.97
2023-01-03T19:01:21.497Z,17.93
2023-01-03T19:04:25.303Z,17.00
2023-01-03T19:07:34.453Z,16.63
2023-01-03T19:10:38.311Z,17.37
2023-01-03T19:13:52.022Z,18.37
2023-01-03T19:16:57.481Z,17.40
2023-01-03T19:20:01.291Z,17.00
2023-01-03T19:23:06.985Z,17.17
2023-01-03T19:26:29.359Z,17.30
2023-01-03T19:29:37.756Z,17.10
2023-01-03T19:32:43.197Z,15.53
2023-01-03T19:35:47.447Z,15.67
2023-01-03T19:38:51.058Z,15.63
2023-01-03T19:42:14.857Z,14.63
2023-01-03T19:45:37.133Z,15.20
2023-01-03T19:48:42.334Z,13.70
2023-01-03T19:51:45.912Z,12.97
2023-01-03T19:54:49.853Z,11.67
2023-01-03T19:57:53.851Z,11.43
2023-01-03T20:00:58.387Z,12.30
2023-01-03T20:04:03.660Z,11.63
2023-01-03T20:07:15.239Z,11.27
2023-01-03T20:10:21.714Z,11.07
2023-01-03T20:13:28.042Z,11.03
2023-01-03T20:16:31.710Z,10.93
2023-01-03T20:19:36.914Z,11.03
2023-01-03T20:26:05.620Z,10.67
2023-01-03T20:29:12.699Z,9.73
2023-01-03T20:32:16.518Z,9.13
2023-01-03T20:38:50.426Z,8.70
2023-01-03T20:41:57.356Z,8.90
2023-01-03T20:45:06.261Z,7.97
2023-01-03T20:48:21.150Z,7.67
2023-01-03T20:51:30.557Z,8.17
2023-01-03T20:54:34.309Z,8.23
2023-01-03T20:57:37.971Z,7.17
2023-01-03T21:00:41.773Z,6.90
2023-01-03T21:03:45.562Z,6.60
2023-01-03T21:06:52.772Z,6.20
2023-01-03T21:09:56.444Z,6.23
2023-01-03T21:13:00.489Z,5.80
2023-01-03T21:16:04.077Z,5.00
2023-01-03T21:19:13.940Z,5.53
2023-01-03T21:22:21.958Z,4.87
2023-01-03T21:25:28.562Z,4.50
2023-01-03T21:28:32.161Z,4.33
2023-01-03T21:31:37.359Z,4.73
2023-01-03T21:34:41.303Z,4.17
2023-01-03T21:37:47.068Z,3.87
2023-01-03T21:40:51.099Z,3.90
2023-01-03T21:43:57.043Z,3.57
2023-01-03T21:47:00.657Z,3.67
2023-01-03T21:50:04.466Z,3.57
2023-01-03T21:53:14.512Z,3.03
2023-01-03T21:56:22.416Z,3.07
2023-01-03T21:59:26.078Z,2.77
2023-01-03T22:02:47.562Z,2.13
2023-01-03T22:05:51.260Z,2.77
2023-01-03T22:08:56.903Z,2.87
2023-01-03T22:12:00.560Z,2.77
2023-01-03T22:15:04.567Z,2.50
2023-01-03T22:18:11.045Z,2.70
2023-01-03T22:21:15.356Z,2.97
2023-01-03T22:24:20.347Z,2.10
2023-01-03T22:27:23.982Z,2.60
2023-01-03T22:30:27.916Z,2.30
2023-01-03T22:33:33.987Z,2.63
2023-01-03T22:36:37.559Z,2.50
2023-01-03T22:39:42.541Z,2.70
2023-01-03T22:42:46.147Z,2.67
2023-01-03T22:45:49.895Z,2.57
2023-01-03T22:48:54.052Z,2.70
2023-01-03T22:51:57.790Z,2.40
2023-01-03T22:55:02.887Z,2.80
2023-01-03T22:58:06.582Z,2.70
2023-01-03T23:01:13.246Z,2.43
2023-01-03T23:04:19.315Z,2.37
2023-01-03T23:07:23.052Z,2.23
2023-01-03T23:10:28.236Z,2.40
2023-01-03T23:13:30.830Z,2.17
2023-01-03T23:16:34.777Z,2.47
2023-01-03T23:19:38.494Z,1.73
2023-01-03T23:22:43.866Z,2.20
2023-01-03T23:25:48.837Z,2.17
2023-01-03T23:28:56.753Z,2.30
2023-01-03T23:32:00.511Z,2.30
2023-01-03T23:35:04.503Z,1.83
2023-01-03T23:38:08.058Z,1.90
2023-01-03T23:41:13.179Z,1.67
2023-01-03T23:44:16.908Z,1.70
2023-01-03T23:47:20.613Z,1.67
2023-01-03T23:50:24.288Z,1.40
2023-01-03T23:53:27.817Z,1.60
2023-01-03T23:56:32.839Z,1.30
2023-01-03T23:59:36.507Z,1.57
